sensor_id;sensor_type;location;lat;lon;timestamp;P1;durP1;ratioP1;P2;durP2;ratioP2
13969;SDS011;7057;49.984;8.404;2022-07-29T00:00:39;2.50;;;1.60;;
13969;SDS011;7057;49.984;8.404;2022-07-29T00:03:06;2.87;;;1.70;;
13969;SDS011;7057;49.984;8.404;2022-07-29T00:05:33;2.67;;;1.80;;
13969;SDS011;7057;49.984;8.404;2022-07-29T00:08:00;2.03;;;1.90;;
13969;SDS011;7057;49.984;8.404;2022-07-29T00:10:27;2.80;;;1.80;;
13969;SDS011;7057;49.984;8.404;2022-07-29T00:12:54;3.10;;;1.90;;
13969;SDS011;7057;49.984;8.404;2022-07-29T00:15:21;3.10;;;1.50;;
13969;SDS011;7057;49.984;8.404;2022-07-29T00:17:50;3.20;;;1.70;;
13969;SDS011;7057;49.984;8.404;2022-07-29T00:20:17;2.87;;;1.67;;
13969;SDS011;7057;49.984;8.404;2022-07-29T00:22:44;2.43;;;1.73;;
13969;SDS011;7057;49.984;8.404;2022-07-29T00:25:12;1.93;;;1.50;;
13969;SDS011;7057;49.984;8.404;2022-07-29T00:27:39;3.57;;;2.07;;
13969;SDS011;7057;49.984;8.404;2022-07-29T00:30:07;2.53;;;1.60;;
13969;SDS011;7057;49.984;8.404;2022-07-29T00:32:34;6.17;;;1.70;;
13969;SDS011;7057;49.984;8.404;2022-07-29T00:35:03;2.77;;;1.67;;
13969;SDS011;7057;49.984;8.404;2022-07-29T00:37:49;6.27;;;2.07;;
13969;SDS011;7057;49.984;8.404;2022-07-29T00:40:16;2.47;;;1.80;;
13969;SDS011;7057;49.984;8.404;2022-07-29T00:42:43;3.27;;;1.67;;
13969;SDS011;7057;49.984;8.404;2022-07-29T00:45:11;4.73;;;1.70;;
13969;SDS011;7057;49.984;8.404;2022-07-29T00:47:39;2.73;;;2.00;;
13969;SDS011;7057;49.984;8.404;2022-07-29T00:50:09;2.37;;;1.90;;
13969;SDS011;7057;49.984;8.404;2022-07-29T00:52:38;3.83;;;1.63;;
13969;SDS011;7057;49.984;8.404;2022-07-29T00:55:07;2.27;;;1.70;;
13969;SDS011;7057;49.984;8.404;2022-07-29T00:57:36;3.03;;;1.90;;
13969;SDS011;7057;49.984;8.404;2022-07-29T01:00:04;2.07;;;1.70;;
13969;SDS011;7057;49.984;8.404;2022-07-29T01:02:33;2.00;;;1.60;;
13969;SDS011;7057;49.984;8.404;2022-07-29T01:05:00;3.70;;;1.60;;
13969;SDS011;7057;49.984;8.404;2022-07-29T01:07:29;2.50;;;1.93;;
13969;SDS011;7057;49.984;8.404;2022-07-29T01:09:58;2.87;;;1.40;;
13969;SDS011;7057;49.984;8.404;2022-07-29T01:12:26;5.00;;;1.70;;
13969;SDS011;7057;49.984;8.404;2022-07-29T01:14:58;1.43;;;1.33;;
13969;SDS011;7057;49.984;8.404;2022-07-29T01:17:28;4.07;;;1.80;;
13969;SDS011;7057;49.984;8.404;2022-07-29T01:20:00;2.87;;;1.83;;
13969;SDS011;7057;49.984;8.404;2022-07-29T01:22:37;3.03;;;2.20;;
13969;SDS011;7057;49.984;8.404;2022-07-29T01:25:23;3.27;;;1.80;;
13969;SDS011;7057;49.984;8.404;2022-07-29T01:28:08;5.10;;;1.90;;
13969;SDS011;7057;49.984;8.404;2022-07-29T01:30:52;3.23;;;2.03;;
13969;SDS011;7057;49.984;8.404;2022-07-29T01:33:21;2.37;;;1.93;;
13969;SDS011;7057;49.984;8.404;2022-07-29T01:36:10;1.97;;;1.77;;
13969;SDS011;7057;49.984;8.404;2022-07-29T01:38:41;3.70;;;2.10;;
13969;SDS011;7057;49.984;8.404;2022-07-29T01:41:11;2.20;;;2.00;;
13969;SDS011;7057;49.984;8.404;2022-07-29T01:43:44;4.53;;;2.20;;
13969;SDS011;7057;49.984;8.404;2022-07-29T01:46:20;4.27;;;2.20;;
13969;SDS011;7057;49.984;8.404;2022-07-29T01:48:52;3.03;;;1.80;;
13969;SDS011;7057;49.984;8.404;2022-07-29T01:51:25;3.00;;;1.93;;
13969;SDS011;7057;49.984;8.404;2022-07-29T01:53:59;3.43;;;2.07;;
13969;SDS011;7057;49.984;8.404;2022-07-29T01:56:30;3.57;;;2.30;;
13969;SDS011;7057;49.984;8.404;2022-07-29T01:58:59;3.30;;;2.00;;
13969;SDS011;7057;49.984;8.404;2022-07-29T02:01:31;6.53;;;2.13;;
13969;SDS011;7057;49.984;8.404;2022-07-29T02:04:01;2.87;;;1.73;;
13969;SDS011;7057;49.984;8.404;2022-07-29T02:06:32;2.47;;;2.00;;
13969;SDS011;7057;49.984;8.404;2022-07-29T02:09:01;4.10;;;2.30;;
13969;SDS011;7057;49.984;8.404;2022-07-29T02:11:29;4.77;;;1.80;;
13969;SDS011;7057;49.984;8.404;2022-07-29T02:13:59;2.43;;;2.00;;
13969;SDS011;7057;49.984;8.404;2022-07-29T02:16:28;3.13;;;2.30;;
13969;SDS011;7057;49.984;8.404;2022-07-29T02:18:58;2.13;;;1.93;;
13969;SDS011;7057;49.984;8.404;2022-07-29T02:21:28;3.30;;;2.50;;
13969;SDS011;7057;49.984;8.404;2022-07-29T02:23:59;2.67;;;2.07;;
13969;SDS011;7057;49.984;8.404;2022-07-29T02:26:28;4.07;;;2.10;;
13969;SDS011;7057;49.984;8.404;2022-07-29T02:28:57;4.27;;;2.60;;
13969;SDS011;7057;49.984;8.404;2022-07-29T02:31:26;2.20;;;1.90;;
13969;SDS011;7057;49.984;8.404;2022-07-29T02:33:57;4.20;;;2.07;;
13969;SDS011;7057;49.984;8.404;2022-07-29T02:36:26;3.47;;;2.13;;
13969;SDS011;7057;49.984;8.404;2022-07-29T02:38:55;5.13;;;2.30;;
13969;SDS011;7057;49.984;8.404;2022-07-29T02:41:27;2.43;;;2.13;;
13969;SDS011;7057;49.984;8.404;2022-07-29T02:44:04;4.87;;;2.70;;
13969;SDS011;7057;49.984;8.404;2022-07-29T02:46:36;2.57;;;2.20;;
13969;SDS011;7057;49.984;8.404;2022-07-29T02:49:12;3.27;;;2.10;;
13969;SDS011;7057;49.984;8.404;2022-07-29T02:51:43;3.73;;;1.90;;
13969;SDS011;7057;49.984;8.404;2022-07-29T02:54:14;3.40;;;2.00;;
13969;SDS011;7057;49.984;8.404;2022-07-29T02:56:48;3.93;;;2.30;;
13969;SDS011;7057;49.984;8.404;2022-07-29T02:59:19;2.20;;;2.00;;
13969;SDS011;7057;49.984;8.404;2022-07-29T03:01:49;4.97;;;2.50;;
13969;SDS011;7057;49.984;8.404;2022-07-29T03:04:19;3.23;;;2.10;;
13969;SDS011;7057;49.984;8.404;2022-07-29T03:06:49;3.47;;;2.37;;
13969;SDS011;7057;49.984;8.404;2022-07-29T03:09:18;3.27;;;2.03;;
13969;SDS011;7057;49.984;8.404;2022-07-29T03:11:47;3.67;;;2.07;;
13969;SDS011;7057;49.984;8.404;2022-07-29T03:14:14;3.77;;;2.40;;
13969;SDS011;7057;49.984;8.404;2022-07-29T03:16:43;3.93;;;2.33;;
13969;SDS011;7057;49.984;8.404;2022-07-29T03:19:10;2.73;;;2.20;;
13969;SDS011;7057;49.984;8.404;2022-07-29T03:21:39;3.93;;;2.47;;
13969;SDS011;7057;49.984;8.404;2022-07-29T03:24:06;5.47;;;2.23;;
13969;SDS011;7057;49.984;8.404;2022-07-29T03:26:34;3.97;;;2.47;;
13969;SDS011;7057;49.984;8.404;2022-07-29T03:29:01;2.80;;;2.23;;
13969;SDS011;7057;49.984;8.404;2022-07-29T03:31:28;2.53;;;2.00;;
13969;SDS011;7057;49.984;8.404;2022-07-29T03:33:55;2.23;;;2.00;;
13969;SDS011;7057;49.984;8.404;2022-07-29T03:36:22;5.07;;;2.40;;
13969;SDS011;7057;49.984;8.404;2022-07-29T03:38:51;4.20;;;2.07;;
13969;SDS011;7057;49.984;8.404;2022-07-29T03:41:19;2.57;;;2.20;;
13969;SDS011;7057;49.984;8.404;2022-07-29T03:43:50;6.03;;;2.60;;
13969;SDS011;7057;49.984;8.404;2022-07-29T03:46:19;3.13;;;2.03;;
13969;SDS011;7057;49.984;8.404;2022-07-29T03:48:50;3.07;;;2.13;;
13969;SDS011;7057;49.984;8.404;2022-07-29T03:51:21;3.33;;;2.37;;
13969;SDS011;7057;49.984;8.404;2022-07-29T03:53:49;3.20;;;2.37;;
13969;SDS011;7057;49.984;8.404;2022-07-29T03:56:17;3.30;;;2.60;;
13969;SDS011;7057;49.984;8.404;2022-07-29T03:58:47;5.17;;;2.50;;
13969;SDS011;7057;49.984;8.404;2022-07-29T04:01:16;5.93;;;2.03;;
13969;SDS011;7057;49.984;8.404;2022-07-29T04:03:44;3.77;;;2.53;;
13969;SDS011;7057;49.984;8.404;2022-07-29T04:06:11;5.60;;;2.30;;
13969;SDS011;7057;49.984;8.404;2022-07-29T04:08:39;4.40;;;2.47;;
13969;SDS011;7057;49.984;8.404;2022-07-29T04:11:06;4.47;;;2.30;;
13969;SDS011;7057;49.984;8.404;2022-07-29T04:13:34;5.10;;;2.70;;
13969;SDS011;7057;49.984;8.404;2022-07-29T04:16:01;2.47;;;2.13;;
13969;SDS011;7057;49.984;8.404;2022-07-29T04:18:29;3.50;;;2.10;;
13969;SDS011;7057;49.984;8.404;2022-07-29T04:20:56;4.23;;;2.93;;
13969;SDS011;7057;49.984;8.404;2022-07-29T04:23:26;3.20;;;2.40;;
13969;SDS011;7057;49.984;8.404;2022-07-29T04:25:53;3.23;;;2.37;;
13969;SDS011;7057;49.984;8.404;2022-07-29T04:28:20;4.33;;;2.70;;
13969;SDS011;7057;49.984;8.404;2022-07-29T04:30:48;3.47;;;2.47;;
13969;SDS011;7057;49.984;8.404;2022-07-29T04:33:15;4.20;;;2.60;;
13969;SDS011;7057;49.984;8.404;2022-07-29T04:35:43;3.53;;;2.40;;
13969;SDS011;7057;49.984;8.404;2022-07-29T04:38:10;3.10;;;2.00;;
13969;SDS011;7057;49.984;8.404;2022-07-29T04:40:37;2.77;;;2.30;;
13969;SDS011;7057;49.984;8.404;2022-07-29T04:43:04;3.30;;;2.33;;
13969;SDS011;7057;49.984;8.404;2022-07-29T04:45:31;4.30;;;2.37;;
13969;SDS011;7057;49.984;8.404;2022-07-29T04:48:00;4.33;;;2.40;;
13969;SDS011;7057;49.984;8.404;2022-07-29T04:50:27;2.60;;;2.40;;
13969;SDS011;7057;49.984;8.404;2022-07-29T04:52:54;3.07;;;2.50;;
13969;SDS011;7057;49.984;8.404;2022-07-29T04:55:21;3.20;;;2.13;;
13969;SDS011;7057;49.984;8.404;2022-07-29T04:57:48;3.33;;;2.13;;
13969;SDS011;7057;49.984;8.404;2022-07-29T05:00:15;4.33;;;2.17;;
13969;SDS011;7057;49.984;8.404;2022-07-29T05:02:43;4.80;;;2.13;;
13969;SDS011;7057;49.984;8.404;2022-07-29T05:05:11;3.43;;;2.50;;
13969;SDS011;7057;49.984;8.404;2022-07-29T05:07:38;2.90;;;2.40;;
13969;SDS011;7057;49.984;8.404;2022-07-29T05:10:06;3.97;;;2.17;;
13969;SDS011;7057;49.984;8.404;2022-07-29T05:12:34;5.80;;;2.70;;
13969;SDS011;7057;49.984;8.404;2022-07-29T05:15:01;3.30;;;2.47;;
13969;SDS011;7057;49.984;8.404;2022-07-29T05:17:28;4.73;;;2.20;;
13969;SDS011;7057;49.984;8.404;2022-07-29T05:19:55;2.53;;;2.33;;
13969;SDS011;7057;49.984;8.404;2022-07-29T05:22:23;4.13;;;2.20;;
13969;SDS011;7057;49.984;8.404;2022-07-29T05:24:50;2.93;;;2.40;;
13969;SDS011;7057;49.984;8.404;2022-07-29T05:27:18;4.40;;;2.30;;
13969;SDS011;7057;49.984;8.404;2022-07-29T05:29:45;2.63;;;2.10;;
13969;SDS011;7057;49.984;8.404;2022-07-29T05:32:12;2.57;;;2.20;;
13969;SDS011;7057;49.984;8.404;2022-07-29T05:34:39;2.20;;;1.87;;
13969;SDS011;7057;49.984;8.404;2022-07-29T05:37:06;4.53;;;2.30;;
13969;SDS011;7057;49.984;8.404;2022-07-29T05:39:35;4.90;;;2.10;;
13969;SDS011;7057;49.984;8.404;2022-07-29T05:42:02;3.97;;;2.00;;
13969;SDS011;7057;49.984;8.404;2022-07-29T05:44:29;4.00;;;2.10;;
13969;SDS011;7057;49.984;8.404;2022-07-29T05:46:56;4.43;;;2.27;;
13969;SDS011;7057;49.984;8.404;2022-07-29T05:49:23;4.77;;;2.07;;
13969;SDS011;7057;49.984;8.404;2022-07-29T05:51:50;3.13;;;2.00;;
13969;SDS011;7057;49.984;8.404;2022-07-29T05:54:18;5.23;;;2.30;;
13969;SDS011;7057;49.984;8.404;2022-07-29T05:56:47;2.70;;;2.17;;
13969;SDS011;7057;49.984;8.404;2022-07-29T05:59:14;6.37;;;2.40;;
13969;SDS011;7057;49.984;8.404;2022-07-29T06:01:41;4.63;;;2.37;;
13969;SDS011;7057;49.984;8.404;2022-07-29T06:04:08;3.27;;;2.10;;
13969;SDS011;7057;49.984;8.404;2022-07-29T06:06:35;4.87;;;2.40;;
13969;SDS011;7057;49.984;8.404;2022-07-29T06:09:03;2.60;;;1.93;;
13969;SDS011;7057;49.984;8.404;2022-07-29T06:11:30;3.50;;;2.07;;
13969;SDS011;7057;49.984;8.404;2022-07-29T06:13:58;4.23;;;2.20;;
13969;SDS011;7057;49.984;8.404;2022-07-29T06:16:25;4.33;;;2.23;;
13969;SDS011;7057;49.984;8.404;2022-07-29T06:18:52;5.73;;;2.60;;
13969;SDS011;7057;49.984;8.404;2022-07-29T06:21:19;4.10;;;2.60;;
13969;SDS011;7057;49.984;8.404;2022-07-29T06:23:47;3.67;;;2.20;;
13969;SDS011;7057;49.984;8.404;2022-07-29T06:26:14;3.03;;;2.30;;
13969;SDS011;7057;49.984;8.404;2022-07-29T06:28:41;3.40;;;2.50;;
13969;SDS011;7057;49.984;8.404;2022-07-29T06:31:10;3.37;;;2.63;;
13969;SDS011;7057;49.984;8.404;2022-07-29T06:33:37;4.53;;;2.23;;
13969;SDS011;7057;49.984;8.404;2022-07-29T06:36:04;3.97;;;2.07;;
13969;SDS011;7057;49.984;8.404;2022-07-29T06:38:32;3.63;;;2.10;;
13969;SDS011;7057;49.984;8.404;2022-07-29T06:40:59;5.37;;;2.10;;
13969;SDS011;7057;49.984;8.404;2022-07-29T06:43:26;4.57;;;2.23;;
13969;SDS011;7057;49.984;8.404;2022-07-29T06:45:55;7.17;;;2.40;;
13969;SDS011;7057;49.984;8.404;2022-07-29T06:48:23;3.90;;;2.00;;
13969;SDS011;7057;49.984;8.404;2022-07-29T06:50:52;4.20;;;2.00;;
13969;SDS011;7057;49.984;8.404;2022-07-29T06:53:19;4.20;;;2.30;;
13969;SDS011;7057;49.984;8.404;2022-07-29T06:55:46;3.90;;;2.40;;
13969;SDS011;7057;49.984;8.404;2022-07-29T06:58:13;6.33;;;2.33;;
13969;SDS011;7057;49.984;8.404;2022-07-29T07:00:41;4.57;;;2.40;;
13969;SDS011;7057;49.984;8.404;2022-07-29T07:03:08;3.07;;;2.03;;
13969;SDS011;7057;49.984;8.404;2022-07-29T07:05:37;4.40;;;2.80;;
13969;SDS011;7057;49.984;8.404;2022-07-29T07:08:04;4.77;;;2.43;;
13969;SDS011;7057;49.984;8.404;2022-07-29T07:10:31;3.03;;;1.73;;
13969;SDS011;7057;49.984;8.404;2022-07-29T07:12:59;3.90;;;2.50;;
13969;SDS011;7057;49.984;8.404;2022-07-29T07:15:26;2.90;;;2.17;;
13969;SDS011;7057;49.984;8.404;2022-07-29T07:17:54;5.00;;;2.93;;
13969;SDS011;7057;49.984;8.404;2022-07-29T07:20:21;3.40;;;2.30;;
13969;SDS011;7057;49.984;8.404;2022-07-29T07:22:49;4.03;;;2.47;;
13969;SDS011;7057;49.984;8.404;2022-07-29T07:25:16;8.50;;;2.80;;
13969;SDS011;7057;49.984;8.404;2022-07-29T07:27:44;3.17;;;2.20;;
13969;SDS011;7057;49.984;8.404;2022-07-29T07:30:12;4.17;;;2.33;;
13969;SDS011;7057;49.984;8.404;2022-07-29T07:32:39;6.37;;;2.33;;
13969;SDS011;7057;49.984;8.404;2022-07-29T07:35:07;6.10;;;2.80;;
13969;SDS011;7057;49.984;8.404;2022-07-29T07:37:36;4.80;;;2.20;;
13969;SDS011;7057;49.984;8.404;2022-07-29T07:40:06;3.87;;;2.77;;
13969;SDS011;7057;49.984;8.404;2022-07-29T07:42:34;6.20;;;2.43;;
13969;SDS011;7057;49.984;8.404;2022-07-29T07:45:01;4.13;;;2.87;;
13969;SDS011;7057;49.984;8.404;2022-07-29T07:47:28;4.63;;;2.50;;
13969;SDS011;7057;49.984;8.404;2022-07-29T07:49:55;3.57;;;2.30;;
13969;SDS011;7057;49.984;8.404;2022-07-29T07:52:22;8.50;;;2.27;;
13969;SDS011;7057;49.984;8.404;2022-07-29T07:54:49;5.47;;;2.90;;
13969;SDS011;7057;49.984;8.404;2022-07-29T07:57:18;3.77;;;2.37;;
13969;SDS011;7057;49.984;8.404;2022-07-29T07:59:45;5.93;;;3.10;;
13969;SDS011;7057;49.984;8.404;2022-07-29T08:02:12;5.83;;;2.60;;
13969;SDS011;7057;49.984;8.404;2022-07-29T08:04:39;3.53;;;2.63;;
13969;SDS011;7057;49.984;8.404;2022-07-29T08:07:06;4.83;;;2.63;;
13969;SDS011;7057;49.984;8.404;2022-07-29T08:09:34;5.13;;;2.53;;
13969;SDS011;7057;49.984;8.404;2022-07-29T08:12:02;3.07;;;2.40;;
13969;SDS011;7057;49.984;8.404;2022-07-29T08:14:32;6.13;;;2.63;;
13969;SDS011;7057;49.984;8.404;2022-07-29T08:16:59;4.20;;;2.47;;
13969;SDS011;7057;49.984;8.404;2022-07-29T08:19:26;4.23;;;2.47;;
13969;SDS011;7057;49.984;8.404;2022-07-29T08:21:54;7.47;;;2.40;;
13969;SDS011;7057;49.984;8.404;2022-07-29T08:24:21;5.93;;;2.40;;
13969;SDS011;7057;49.984;8.404;2022-07-29T08:27:06;4.27;;;2.10;;
13969;SDS011;7057;49.984;8.404;2022-07-29T08:29:35;3.30;;;2.23;;
13969;SDS011;7057;49.984;8.404;2022-07-29T08:32:02;6.17;;;2.90;;
13969;SDS011;7057;49.984;8.404;2022-07-29T08:34:30;4.30;;;2.10;;
13969;SDS011;7057;49.984;8.404;2022-07-29T08:36:57;3.47;;;2.40;;
13969;SDS011;7057;49.984;8.404;2022-07-29T08:39:25;4.20;;;2.70;;
13969;SDS011;7057;49.984;8.404;2022-07-29T08:41:52;4.57;;;2.70;;
13969;SDS011;7057;49.984;8.404;2022-07-29T08:44:20;3.63;;;2.40;;
13969;SDS011;7057;49.984;8.404;2022-07-29T08:46:49;4.03;;;2.77;;
13969;SDS011;7057;49.984;8.404;2022-07-29T08:49:16;3.73;;;2.63;;
13969;SDS011;7057;49.984;8.404;2022-07-29T08:51:43;4.43;;;2.67;;
13969;SDS011;7057;49.984;8.404;2022-07-29T08:54:11;3.40;;;2.67;;
13969;SDS011;7057;49.984;8.404;2022-07-29T08:56:43;3.80;;;2.67;;
13969;SDS011;7057;49.984;8.404;2022-07-29T08:59:11;4.53;;;2.50;;
13969;SDS011;7057;49.984;8.404;2022-07-29T09:01:40;5.87;;;2.50;;
13969;SDS011;7057;49.984;8.404;2022-07-29T09:04:11;5.47;;;2.40;;
13969;SDS011;7057;49.984;8.404;2022-07-29T09:06:42;3.93;;;2.47;;
13969;SDS011;7057;49.984;8.404;2022-07-29T09:09:10;3.17;;;2.30;;
13969;SDS011;7057;49.984;8.404;2022-07-29T09:11:39;2.43;;;2.20;;
13969;SDS011;7057;49.984;8.404;2022-07-29T09:14:07;3.10;;;2.00;;
13969;SDS011;7057;49.984;8.404;2022-07-29T09:16:44;4.37;;;2.40;;
13969;SDS011;7057;49.984;8.404;2022-07-29T09:19:24;4.27;;;2.57;;
13969;SDS011;7057;49.984;8.404;2022-07-29T09:21:53;6.97;;;3.00;;
13969;SDS011;7057;49.984;8.404;2022-07-29T09:24:25;4.40;;;2.63;;
13969;SDS011;7057;49.984;8.404;2022-07-29T09:26:53;7.27;;;2.57;;
13969;SDS011;7057;49.984;8.404;2022-07-29T09:29:22;5.57;;;2.80;;
13969;SDS011;7057;49.984;8.404;2022-07-29T09:31:50;5.07;;;2.50;;
13969;SDS011;7057;49.984;8.404;2022-07-29T09:34:21;4.50;;;2.80;;
13969;SDS011;7057;49.984;8.404;2022-07-29T09:36:51;7.33;;;2.90;;
13969;SDS011;7057;49.984;8.404;2022-07-29T09:39:27;4.57;;;2.57;;
13969;SDS011;7057;49.984;8.404;2022-07-29T09:41:56;5.87;;;2.93;;
13969;SDS011;7057;49.984;8.404;2022-07-29T09:44:25;5.00;;;2.80;;
13969;SDS011;7057;49.984;8.404;2022-07-29T09:46:56;3.20;;;2.63;;
13969;SDS011;7057;49.984;8.404;2022-07-29T09:49:26;2.87;;;2.40;;
13969;SDS011;7057;49.984;8.404;2022-07-29T09:54:41;4.23;;;2.63;;
13969;SDS011;7057;49.984;8.404;2022-07-29T09:57:08;3.70;;;2.20;;
13969;SDS011;7057;49.984;8.404;2022-07-29T09:59:51;3.30;;;2.70;;
13969;SDS011;7057;49.984;8.404;2022-07-29T10:02:24;4.10;;;2.50;;
13969;SDS011;7057;49.984;8.404;2022-07-29T10:04:56;3.77;;;2.63;;
13969;SDS011;7057;49.984;8.404;2022-07-29T10:07:24;3.37;;;2.30;;
13969;SDS011;7057;49.984;8.404;2022-07-29T10:09:52;2.60;;;2.20;;
13969;SDS011;7057;49.984;8.404;2022-07-29T10:12:20;3.87;;;2.30;;
13969;SDS011;7057;49.984;8.404;2022-07-29T10:14:48;4.27;;;2.87;;
13969;SDS011;7057;49.984;8.404;2022-07-29T10:17:16;5.87;;;2.60;;
13969;SDS011;7057;49.984;8.404;2022-07-29T10:19:44;3.40;;;2.90;;
13969;SDS011;7057;49.984;8.404;2022-07-29T10:22:13;4.53;;;2.67;;
13969;SDS011;7057;49.984;8.404;2022-07-29T10:24:41;3.07;;;2.60;;
13969;SDS011;7057;49.984;8.404;2022-07-29T10:27:08;4.03;;;2.70;;
13969;SDS011;7057;49.984;8.404;2022-07-29T10:29:35;3.10;;;2.50;;
13969;SDS011;7057;49.984;8.404;2022-07-29T10:32:16;3.43;;;2.57;;
13969;SDS011;7057;49.984;8.404;2022-07-29T10:35:06;3.30;;;2.67;;
13969;SDS011;7057;49.984;8.404;2022-07-29T10:38:02;3.17;;;2.60;;
13969;SDS011;7057;49.984;8.404;2022-07-29T10:40:49;4.10;;;3.10;;
13969;SDS011;7057;49.984;8.404;2022-07-29T10:43:42;3.67;;;2.70;;
13969;SDS011;7057;49.984;8.404;2022-07-29T10:46:11;3.23;;;2.60;;
13969;SDS011;7057;49.984;8.404;2022-07-29T10:51:56;4.00;;;2.87;;
13969;SDS011;7057;49.984;8.404;2022-07-29T10:57:22;4.30;;;2.83;;
13969;SDS011;7057;49.984;8.404;2022-07-29T11:02:53;3.30;;;2.67;;
13969;SDS011;7057;49.984;8.404;2022-07-29T11:05:21;4.50;;;2.90;;
13969;SDS011;7057;49.984;8.404;2022-07-29T11:10:53;3.23;;;2.70;;
13969;SDS011;7057;49.984;8.404;2022-07-29T11:13:44;6.13;;;3.00;;
13969;SDS011;7057;49.984;8.404;2022-07-29T11:16:17;2.80;;;2.30;;
13969;SDS011;7057;49.984;8.404;2022-07-29T11:21:45;4.03;;;2.77;;
13969;SDS011;7057;49.984;8.404;2022-07-29T11:24:15;3.20;;;2.67;;
13969;SDS011;7057;49.984;8.404;2022-07-29T11:29:38;5.60;;;2.90;;
13969;SDS011;7057;49.984;8.404;2022-07-29T11:32:10;3.53;;;2.70;;
13969;SDS011;7057;49.984;8.404;2022-07-29T11:34:39;4.60;;;2.90;;
13969;SDS011;7057;49.984;8.404;2022-07-29T11:37:17;3.97;;;2.63;;
13969;SDS011;7057;49.984;8.404;2022-07-29T11:39:46;3.97;;;2.90;;
13969;SDS011;7057;49.984;8.404;2022-07-29T11:45:06;4.37;;;2.87;;
13969;SDS011;7057;49.984;8.404;2022-07-29T11:47:35;4.50;;;2.87;;
13969;SDS011;7057;49.984;8.404;2022-07-29T11:50:04;4.10;;;2.90;;
13969;SDS011;7057;49.984;8.404;2022-07-29T11:52:33;4.27;;;2.90;;
13969;SDS011;7057;49.984;8.404;2022-07-29T11:55:03;5.67;;;3.00;;
13969;SDS011;7057;49.984;8.404;2022-07-29T11:57:32;4.30;;;3.23;;
13969;SDS011;7057;49.984;8.404;2022-07-29T12:00:03;6.50;;;2.87;;
13969;SDS011;7057;49.984;8.404;2022-07-29T12:02:38;4.43;;;2.97;;
13969;SDS011;7057;49.984;8.404;2022-07-29T12:05:07;6.33;;;3.30;;
13969;SDS011;7057;49.984;8.404;2022-07-29T12:07:35;4.23;;;2.67;;
13969;SDS011;7057;49.984;8.404;2022-07-29T12:10:04;3.37;;;3.00;;
13969;SDS011;7057;49.984;8.404;2022-07-29T12:12:32;3.60;;;2.80;;
13969;SDS011;7057;49.984;8.404;2022-07-29T12:15:14;4.30;;;3.10;;
13969;SDS011;7057;49.984;8.404;2022-07-29T12:17:45;2.80;;;2.50;;
13969;SDS011;7057;49.984;8.404;2022-07-29T12:20:12;3.13;;;2.83;;
13969;SDS011;7057;49.984;8.404;2022-07-29T12:22:42;2.90;;;2.60;;
13969;SDS011;7057;49.984;8.404;2022-07-29T12:25:10;3.23;;;2.93;;
13969;SDS011;7057;49.984;8.404;2022-07-29T12:27:39;3.80;;;3.00;;
13969;SDS011;7057;49.984;8.404;2022-07-29T12:30:09;2.87;;;2.53;;
13969;SDS011;7057;49.984;8.404;2022-07-29T12:32:42;3.63;;;3.30;;
13969;SDS011;7057;49.984;8.404;2022-07-29T12:35:11;4.73;;;3.07;;
13969;SDS011;7057;49.984;8.404;2022-07-29T12:37:42;6.30;;;2.97;;
13969;SDS011;7057;49.984;8.404;2022-07-29T12:40:11;5.40;;;3.00;;
13969;SDS011;7057;49.984;8.404;2022-07-29T12:42:41;5.50;;;3.37;;
13969;SDS011;7057;49.984;8.404;2022-07-29T12:45:32;3.27;;;2.53;;
13969;SDS011;7057;49.984;8.404;2022-07-29T12:48:01;4.93;;;2.87;;
13969;SDS011;7057;49.984;8.404;2022-07-29T12:50:29;4.97;;;3.20;;
13969;SDS011;7057;49.984;8.404;2022-07-29T12:53:07;4.57;;;3.33;;
13969;SDS011;7057;49.984;8.404;2022-07-29T12:55:38;4.80;;;3.07;;
13969;SDS011;7057;49.984;8.404;2022-07-29T12:58:07;3.60;;;3.10;;
13969;SDS011;7057;49.984;8.404;2022-07-29T13:00:35;4.57;;;3.40;;
13969;SDS011;7057;49.984;8.404;2022-07-29T13:03:03;4.90;;;2.90;;
13969;SDS011;7057;49.984;8.404;2022-07-29T13:05:41;3.90;;;2.97;;
13969;SDS011;7057;49.984;8.404;2022-07-29T13:08:10;6.63;;;3.03;;
13969;SDS011;7057;49.984;8.404;2022-07-29T13:10:37;4.63;;;3.43;;
13969;SDS011;7057;49.984;8.404;2022-07-29T13:13:05;4.00;;;2.83;;
13969;SDS011;7057;49.984;8.404;2022-07-29T13:15:35;4.67;;;2.83;;
13969;SDS011;7057;49.984;8.404;2022-07-29T13:18:04;4.37;;;3.20;;
13969;SDS011;7057;49.984;8.404;2022-07-29T13:20:52;3.50;;;2.80;;
13969;SDS011;7057;49.984;8.404;2022-07-29T13:23:19;11.57;;;3.40;;
13969;SDS011;7057;49.984;8.404;2022-07-29T13:25:46;3.23;;;2.93;;
13969;SDS011;7057;49.984;8.404;2022-07-29T13:28:14;3.50;;;3.17;;
13969;SDS011;7057;49.984;8.404;2022-07-29T13:30:41;3.93;;;2.90;;
13969;SDS011;7057;49.984;8.404;2022-07-29T13:33:10;4.17;;;3.40;;
13969;SDS011;7057;49.984;8.404;2022-07-29T13:35:38;4.27;;;3.00;;
13969;SDS011;7057;49.984;8.404;2022-07-29T13:38:05;3.27;;;2.90;;
13969;SDS011;7057;49.984;8.404;2022-07-29T13:40:32;6.30;;;3.10;;
13969;SDS011;7057;49.984;8.404;2022-07-29T13:43:00;3.60;;;3.10;;
13969;SDS011;7057;49.984;8.404;2022-07-29T13:45:27;4.50;;;3.47;;
13969;SDS011;7057;49.984;8.404;2022-07-29T13:47:55;4.53;;;3.17;;
13969;SDS011;7057;49.984;8.404;2022-07-29T13:50:23;4.47;;;2.87;;
13969;SDS011;7057;49.984;8.404;2022-07-29T13:52:50;4.50;;;3.10;;
13969;SDS011;7057;49.984;8.404;2022-07-29T13:55:18;3.40;;;2.80;;
13969;SDS011;7057;49.984;8.404;2022-07-29T13:57:45;2.93;;;2.73;;
13969;SDS011;7057;49.984;8.404;2022-07-29T14:00:13;4.20;;;2.90;;
13969;SDS011;7057;49.984;8.404;2022-07-29T14:02:41;2.93;;;2.70;;
13969;SDS011;7057;49.984;8.404;2022-07-29T14:05:09;3.27;;;2.77;;
13969;SDS011;7057;49.984;8.404;2022-07-29T14:07:37;3.27;;;2.93;;
13969;SDS011;7057;49.984;8.404;2022-07-29T14:10:05;4.07;;;3.23;;
13969;SDS011;7057;49.984;8.404;2022-07-29T14:12:33;3.20;;;2.90;;
13969;SDS011;7057;49.984;8.404;2022-07-29T14:15:00;4.03;;;2.97;;
13969;SDS011;7057;49.984;8.404;2022-07-29T14:17:27;3.90;;;3.50;;
13969;SDS011;7057;49.984;8.404;2022-07-29T14:19:54;3.37;;;3.07;;
13969;SDS011;7057;49.984;8.404;2022-07-29T14:22:21;4.93;;;3.10;;
13969;SDS011;7057;49.984;8.404;2022-07-29T14:24:51;4.17;;;3.30;;
13969;SDS011;7057;49.984;8.404;2022-07-29T14:27:18;3.70;;;2.80;;
13969;SDS011;7057;49.984;8.404;2022-07-29T14:29:46;3.00;;;2.80;;
13969;SDS011;7057;49.984;8.404;2022-07-29T14:32:13;5.27;;;2.57;;
13969;SDS011;7057;49.984;8.404;2022-07-29T14:34:40;4.13;;;2.90;;
13969;SDS011;7057;49.984;8.404;2022-07-29T14:37:07;4.17;;;2.70;;
13969;SDS011;7057;49.984;8.404;2022-07-29T14:39:35;3.03;;;2.83;;
13969;SDS011;7057;49.984;8.404;2022-07-29T14:42:03;4.77;;;2.50;;
13969;SDS011;7057;49.984;8.404;2022-07-29T14:44:31;3.97;;;3.00;;
13969;SDS011;7057;49.984;8.404;2022-07-29T14:46:58;4.00;;;2.93;;
13969;SDS011;7057;49.984;8.404;2022-07-29T14:49:26;3.47;;;2.70;;
13969;SDS011;7057;49.984;8.404;2022-07-29T14:51:53;3.77;;;2.53;;
13969;SDS011;7057;49.984;8.404;2022-07-29T14:54:20;3.40;;;2.90;;
13969;SDS011;7057;49.984;8.404;2022-07-29T14:56:48;3.30;;;3.00;;
13969;SDS011;7057;49.984;8.404;2022-07-29T14:59:17;4.13;;;2.83;;
13969;SDS011;7057;49.984;8.404;2022-07-29T15:01:44;3.87;;;2.83;;
13969;SDS011;7057;49.984;8.404;2022-07-29T15:04:11;2.80;;;2.60;;
13969;SDS011;7057;49.984;8.404;2022-07-29T15:06:38;2.90;;;2.60;;
13969;SDS011;7057;49.984;8.404;2022-07-29T15:09:05;5.10;;;2.90;;
13969;SDS011;7057;49.984;8.404;2022-07-29T15:11:33;3.50;;;2.93;;
13969;SDS011;7057;49.984;8.404;2022-07-29T15:14:00;4.07;;;3.10;;
13969;SDS011;7057;49.984;8.404;2022-07-29T15:16:28;3.77;;;2.90;;
13969;SDS011;7057;49.984;8.404;2022-07-29T15:18:55;5.97;;;3.33;;
13969;SDS011;7057;49.984;8.404;2022-07-29T15:21:23;3.33;;;3.03;;
13969;SDS011;7057;49.984;8.404;2022-07-29T15:23:50;2.97;;;2.63;;
13969;SDS011;7057;49.984;8.404;2022-07-29T15:26:17;4.67;;;3.40;;
13969;SDS011;7057;49.984;8.404;2022-07-29T15:28:44;2.77;;;2.57;;
13969;SDS011;7057;49.984;8.404;2022-07-29T15:31:11;3.37;;;2.47;;
13969;SDS011;7057;49.984;8.404;2022-07-29T15:33:40;3.90;;;2.87;;
13969;SDS011;7057;49.984;8.404;2022-07-29T15:36:07;4.03;;;2.80;;